Portada
METAR-TAF:

METAR-TAF

Aeroports :

Kokomo Municipal Airport

Kokomo, Indiana, Estats Units d'Amèrica

latitud: 40-32N, longitud: 086-04W, altitud: 253 m

Observació

L'informe es va fer fa 35 minuts, a les 00:56 UTC
Vent 14 kt del Oest/Nord-Oest
Temperatura 15°C
Humitat 67%
Pressió 1013 hPa
Visibilitat: 16.1 km
Cel cobert a una alçada de 4400 ft

METAR: KOKK 180056Z AUTO 30014KT 10SM OVC044 15/09 A2991 RMK AO2 PK WND 28028/0006 SLP128 T01500089

Hora: 21:31 (01:31 UTC)


TAF: manca

Observacions i pronòstics meteorològics de més de 4000 aeroports (METAR i TAF).

Les estacions disponibles són els punts grocs i vermells al mapa.

Posi el ratolí al punt desitjat per veure el nom de l'estació.

Feu clic per veure les observacions i els pronòstics meteorològics.

Per canviar el mapa: feu clic els botons verds amb una creu de color negre per apropar; al botó verd amb un guió per allunyar la imatge; o en les fletxes verdes per a mapes adjacents.


METAR-TAF: